Time;durP1;ratioP1;P1;durP2;ratioP2;P2;SDS_P1;SDS_P2;PMS_P1;PMS_P2;Temp;Humidity;BMP_temperature;BMP_pressure;BME280_temperature;BME280_humidity;BME280_pressure;Samples;Min_cycle;Max_cycle;Signal;HPM_P1;HPM_P2
2023/08/23 00:02:44;;;;;;;4.40;4.00;;;;;;;21.72;75.85;101818.28;6171133;28;20241;-66
2023/08/23 00:06:05;;;;;;;6.75;5.13;;;;;;;21.69;76.32;101814.06;6176137;28;20233;-65
2023/08/23 00:09:26;;;;;;;4.47;4.10;;;;;;;21.63;76.57;101812.06;6174115;28;20233;-65
2023/08/23 00:12:53;;;;;;;5.60;5.10;;;;;;;21.63;76.96;101814.81;6221301;28;20268;-65
2023/08/23 00:16:13;;;;;;;6.72;4.72;;;;;;;21.57;76.99;101815.50;6180163;28;20230;-65
2023/08/23 00:19:34;;;;;;;6.03;4.82;;;;;;;21.54;77.33;101810.41;6178263;28;20226;-65
2023/08/23 00:22:55;;;;;;;5.70;4.65;;;;;;;21.42;77.85;101807.22;6185906;28;20535;-65
2023/08/23 00:26:16;;;;;;;8.32;6.07;;;;;;;21.44;78.24;101809.81;6174359;28;20230;-65
2023/08/23 00:29:38;;;;;;;8.18;6.28;;;;;;;21.45;78.76;101808.75;6173226;28;20235;-64
2023/08/23 00:33:02;;;;;;;6.85;5.32;;;;;;;21.42;79.09;101811.88;6187662;28;20262;-65
2023/08/23 00:36:23;;;;;;;7.45;6.35;;;;;;;21.47;79.51;101810.28;6193869;28;20233;-65
2023/08/23 00:39:44;;;;;;;12.23;6.15;;;;;;;21.42;79.61;101809.97;6182663;28;20238;-65
2023/08/23 00:43:07;;;;;;;7.40;5.95;;;;;;;21.47;79.54;101812.16;6170092;28;20257;-65
2023/08/23 00:46:31;;;;;;;8.65;7.45;;;;;;;21.34;80.30;101821.03;6177041;28;20229;-64
2023/08/23 00:49:52;;;;;;;11.35;7.47;;;;;;;21.37;80.63;101817.91;6191165;28;20237;-66
2023/08/23 00:53:14;;;;;;;9.02;7.07;;;;;;;21.41;80.81;101815.66;6192997;28;20779;-65
2023/08/23 00:56:35;;;;;;;9.70;7.90;;;;;;;21.45;80.91;101817.84;6163304;28;20265;-65
2023/08/23 00:59:57;;;;;;;7.05;5.80;;;;;;;21.36;80.95;101826.34;6178378;28;20268;-65
2023/08/23 01:03:19;;;;;;;9.27;7.07;;;;;;;21.43;81.08;101819.06;6182550;28;20238;-64
2023/08/23 01:06:52;;;;;;;10.75;7.22;;;;;;;21.20;82.40;101830.03;6174275;28;20230;-65
2023/08/23 01:10:26;;;;;;;9.80;7.63;;;;;;;21.32;82.65;101824.97;6177809;28;20617;-65
2023/08/23 01:13:54;;;;;;;13.00;7.60;;;;;;;21.15;82.76;101817.91;6199652;28;20256;-64
2023/08/23 01:17:16;;;;;;;12.05;6.93;;;;;;;21.15;83.45;101815.19;6194399;28;20229;-64
2023/08/23 01:20:39;;;;;;;13.50;8.57;;;;;;;21.22;83.36;101818.88;6200095;28;20269;-65
2023/08/23 01:24:08;;;;;;;8.40;7.38;;;;;;;21.20;83.94;101809.97;6199907;28;20376;-65
2023/08/23 01:27:29;;;;;;;8.90;8.00;;;;;;;20.95;84.75;101811.16;6208225;28;20241;-65
2023/08/23 01:30:54;;;;;;;15.50;7.30;;;;;;;21.07;84.63;101796.03;6190190;28;20243;-65
2023/08/23 01:34:23;;;;;;;8.23;6.97;;;;;;;21.11;84.43;101800.94;6202973;28;20616;-65
2023/08/23 01:37:48;;;;;;;9.50;7.55;;;;;;;21.08;84.56;101805.97;6196800;28;20233;-66
2023/08/23 01:41:11;;;;;;;11.63;6.90;;;;;;;21.08;85.07;101797.72;6173447;28;20225;-65
2023/08/23 01:44:31;;;;;;;7.70;7.00;;;;;;;21.08;85.22;101786.75;6189642;28;20663;-65
2023/08/23 01:47:53;;;;;;;8.68;7.40;;;;;;;21.09;85.42;101783.81;6185220;28;20620;-66
2023/08/23 01:51:14;;;;;;;12.82;7.65;;;;;;;21.08;85.46;101787.63;6179933;28;20241;-66
2023/08/23 01:54:35;;;;;;;8.50;6.80;;;;;;;21.03;85.90;101797.41;6171969;28;20229;-66
2023/08/23 01:57:58;;;;;;;8.73;6.43;;;;;;;20.95;86.38;101798.28;6179352;28;20236;-66
2023/08/23 02:01:19;;;;;;;9.23;7.15;;;;;;;20.87;86.66;101797.50;6182726;28;20244;-65
2023/08/23 02:04:40;;;;;;;10.07;7.68;;;;;;;20.83;87.10;101793.41;6161856;28;20221;-65
2023/08/23 02:08:02;;;;;;;8.35;6.35;;;;;;;20.79;87.34;101795.66;6167110;28;20229;-65
2023/08/23 02:11:23;;;;;;;14.52;7.38;;;;;;;20.87;87.35;101792.00;6170555;28;20231;-65
2023/08/23 02:14:46;;;;;;;12.05;8.27;;;;;;;20.89;87.31;101804.50;6187780;28;20234;-65
2023/08/23 02:18:07;;;;;;;9.18;5.97;;;;;;;20.95;87.00;101798.28;6169656;28;20230;-65
2023/08/23 02:21:28;;;;;;;9.07;6.80;;;;;;;20.79;86.55;101786.56;6167653;28;20328;-65
2023/08/23 02:24:49;;;;;;;9.18;7.32;;;;;;;20.60;87.07;101796.97;6173219;28;20226;-65
2023/08/23 02:28:10;;;;;;;7.40;5.75;;;;;;;20.65;87.14;101794.53;6200351;28;20710;-66
2023/08/23 02:31:33;;;;;;;7.93;6.80;;;;;;;20.57;87.53;101801.94;6178793;28;20507;-65
2023/08/23 02:34:53;;;;;;;7.85;6.68;;;;;;;20.65;87.63;101800.00;6177829;28;20237;-66
2023/08/23 02:38:14;;;;;;;9.60;8.52;;;;;;;20.43;88.82;101788.97;6173979;28;20268;-65
2023/08/23 02:41:35;;;;;;;13.63;8.57;;;;;;;20.02;91.73;101791.00;6181330;28;20224;-66
2023/08/23 02:44:56;;;;;;;10.25;8.10;;;;;;;20.40;91.83;101792.09;6181120;28;20233;-64
2023/08/23 02:48:18;;;;;;;11.57;8.05;;;;;;;20.34;91.44;101790.06;6180417;28;20233;-66
2023/08/23 02:51:39;;;;;;;9.25;7.35;;;;;;;20.41;91.60;101793.78;6178450;28;20249;-65
2023/08/23 02:55:00;;;;;;;9.80;8.68;;;;;;;20.51;92.02;101797.16;6173827;28;20241;-65
2023/08/23 02:58:21;;;;;;;10.32;7.57;;;;;;;20.66;91.49;101798.97;6160874;28;20319;-66
2023/08/23 03:01:41;;;;;;;9.85;8.57;;;;;;;20.75;90.89;101796.19;6201352;28;20239;-65
2023/08/23 03:05:04;;;;;;;8.82;7.65;;;;;;;20.78;90.47;101795.84;6197399;28;20225;-65
2023/08/23 03:08:26;;;;;;;10.73;7.78;;;;;;;20.73;90.36;101787.31;6172186;28;20230;-64
2023/08/23 03:11:47;;;;;;;11.05;7.60;;;;;;;20.82;90.35;101795.28;6186177;28;20796;-64
2023/08/23 03:15:09;;;;;;;13.02;8.23;;;;;;;20.86;89.80;101787.56;6210126;28;20490;-65
2023/08/23 03:18:30;;;;;;;8.70;6.85;;;;;;;20.77;89.39;101786.75;6207170;28;20517;-65
2023/08/23 03:21:52;;;;;;;12.02;7.60;;;;;;;20.59;89.55;101788.91;6214397;28;20506;-65
2023/08/23 03:25:13;;;;;;;12.73;7.10;;;;;;;20.41;90.10;101791.03;6207197;28;20225;-66
2023/08/23 03:28:34;;;;;;;7.07;6.38;;;;;;;20.53;90.33;101795.09;6173377;28;20229;-65
2023/08/23 03:31:59;;;;;;;7.30;5.93;;;;;;;20.60;90.19;101790.63;6230620;28;20228;-64
2023/08/23 03:35:20;;;;;;;8.15;7.35;;;;;;;20.55;89.94;101799.38;6185296;28;20237;-66
2023/08/23 03:38:42;;;;;;;13.02;8.55;;;;;;;20.46;89.92;101799.59;6171734;28;20242;-65
2023/08/23 03:42:03;;;;;;;10.02;7.50;;;;;;;20.45;90.20;101796.00;6204516;28;20319;-65
2023/08/23 03:45:24;;;;;;;9.85;8.80;;;;;;;20.51;90.23;101806.25;6207134;28;20361;-65
2023/08/23 03:48:45;;;;;;;8.32;6.55;;;;;;;20.19;90.19;101798.13;6196941;28;20234;-65
2023/08/23 03:52:06;;;;;;;6.82;5.95;;;;;;;20.31;90.15;101807.69;6184620;28;20473;-64
2023/08/23 03:55:29;;;;;;;7.57;6.75;;;;;;;20.30;89.83;101807.84;6176276;28;21174;-65
2023/08/23 03:58:50;;;;;;;8.02;6.45;;;;;;;20.28;90.18;101808.03;6211259;28;20233;-65
2023/08/23 04:02:14;;;;;;;7.25;6.38;;;;;;;20.18;90.28;101811.97;6179123;28;20225;-65
2023/08/23 04:05:40;;;;;;;6.75;5.00;;;;;;;20.17;90.40;101813.84;6192956;28;20225;-66
2023/08/23 04:09:02;;;;;;;9.40;7.07;;;;;;;20.08;90.78;101816.81;6189922;28;23358;-66
2023/08/23 04:12:24;;;;;;;7.28;6.28;;;;;;;20.13;90.61;101812.50;6200231;28;20236;-66
2023/08/23 04:15:45;;;;;;;10.48;6.90;;;;;;;19.99;90.79;101812.38;6198725;28;20267;-65
2023/08/23 04:19:07;;;;;;;7.38;5.95;;;;;;;20.09;90.66;101810.31;6197671;28;20506;-65
2023/08/23 04:22:28;;;;;;;12.55;10.00;;;;;;;20.03;90.78;101813.72;6200360;28;20579;-65
2023/08/23 04:25:49;;;;;;;8.82;7.50;;;;;;;19.99;91.12;101815.09;6185451;28;20303;-65
2023/08/23 04:29:11;;;;;;;6.40;5.32;;;;;;;19.75;91.61;101816.00;6219594;28;20623;-65
2023/08/23 04:32:32;;;;;;;5.75;4.70;;;;;;;19.80;91.58;101821.81;6193510;28;20229;-65
2023/08/23 04:35:53;;;;;;;6.53;4.78;;;;;;;20.13;91.02;101817.16;6173508;28;20242;-65
2023/08/23 04:39:14;;;;;;;13.02;5.78;;;;;;;20.10;90.89;101822.97;6173093;28;20334;-65
2023/08/23 04:42:36;;;;;;;8.80;5.75;;;;;;;20.20;90.39;101818.16;6200282;28;20258;-64
2023/08/23 04:45:59;;;;;;;5.82;4.00;;;;;;;20.40;89.93;101811.28;6168741;28;21895;-65
2023/08/23 04:49:20;;;;;;;7.43;6.68;;;;;;;20.58;89.12;101809.13;6200211;28;20325;-65
2023/08/23 04:52:41;;;;;;;8.85;5.00;;;;;;;20.63;88.61;101810.28;6181111;28;20237;-65
2023/08/23 04:56:04;;;;;;;5.78;4.78;;;;;;;20.41;88.17;101794.66;6187284;28;20265;-64
2023/08/23 04:59:27;;;;;;;4.93;4.03;;;;;;;20.48;88.20;101806.63;6188951;28;20681;-64
2023/08/23 05:02:50;;;;;;;5.00;4.50;;;;;;;20.25;88.23;101811.16;6219085;28;20235;-65
2023/08/23 05:06:11;;;;;;;4.50;4.10;;;;;;;20.22;88.88;101816.97;6187183;28;20815;-65
2023/08/23 05:09:33;;;;;;;4.68;4.00;;;;;;;20.24;89.42;101817.66;6199079;28;20225;-65
2023/08/23 05:12:55;;;;;;;11.43;4.50;;;;;;;20.10;89.38;101822.97;6194583;28;20233;-64
2023/08/23 05:16:16;;;;;;;9.02;5.95;;;;;;;20.18;89.49;101822.94;6179364;28;20648;-64
2023/08/23 05:19:40;;;;;;;6.70;4.85;;;;;;;20.00;89.91;101819.56;6189746;28;20229;-67
2023/08/23 05:23:02;;;;;;;5.63;4.13;;;;;;;20.39;89.08;101823.25;6191585;28;20256;-66
2023/08/23 05:26:23;;;;;;;5.80;4.20;;;;;;;20.40;88.44;101824.97;6185417;28;20278;-65
2023/08/23 05:29:45;;;;;;;7.38;4.53;;;;;;;20.56;87.91;101817.53;6189517;28;20226;-68
2023/08/23 05:33:07;;;;;;;6.25;3.85;;;;;;;20.62;87.25;101818.69;6199762;28;20427;-67
2023/08/23 05:36:29;;;;;;;5.88;3.80;;;;;;;20.53;87.20;101817.88;6197227;28;20605;-65
2023/08/23 05:39:51;;;;;;;4.88;3.80;;;;;;;20.43;86.98;101830.94;6204066;28;20244;-66
2023/08/23 05:43:12;;;;;;;4.10;3.28;;;;;;;20.35;86.75;101827.38;6204131;28;20236;-67
2023/08/23 05:46:33;;;;;;;6.28;3.65;;;;;;;20.41;87.74;101830.25;6207306;28;20236;-66
2023/08/23 05:49:54;;;;;;;4.93;4.40;;;;;;;20.30;88.03;101819.69;6179137;28;20237;-66
2023/08/23 05:53:19;;;;;;;6.22;3.60;;;;;;;20.38;88.92;101827.84;6193827;28;20245;-67
2023/08/23 05:56:40;;;;;;;6.63;3.08;;;;;;;20.68;87.64;101829.81;6176796;28;20336;-64
2023/08/23 06:00:02;;;;;;;3.50;3.17;;;;;;;20.80;86.93;101832.16;6184035;28;20218;-65
2023/08/23 06:03:33;;;;;;;5.57;3.92;;;;;;;20.99;86.27;101843.50;6170699;28;20968;-68
2023/08/23 06:06:54;;;;;;;3.92;3.63;;;;;;;21.07;85.32;101851.72;6174181;28;20238;-65
2023/08/23 06:10:16;;;;;;;3.60;3.30;;;;;;;21.30;84.43;101847.13;6158138;28;20318;-64
2023/08/23 06:13:37;;;;;;;4.85;3.97;;;;;;;21.26;84.00;101851.25;6195282;28;20236;-65
2023/08/23 06:17:00;;;;;;;4.28;3.47;;;;;;;21.10;84.26;101840.41;6177607;28;20241;-66
2023/08/23 06:20:21;;;;;;;2.60;2.40;;;;;;;21.32;83.83;101839.56;6181840;28;20829;-66
2023/08/23 06:23:43;;;;;;;3.33;2.88;;;;;;;21.13;83.27;101847.41;6174060;28;20241;-66
2023/08/23 06:27:06;;;;;;;4.53;3.03;;;;;;;20.97;83.94;101839.22;6168231;28;20244;-66
2023/08/23 06:30:27;;;;;;;4.88;2.47;;;;;;;21.37;83.81;101841.75;6176753;28;20229;-66
2023/08/23 06:33:48;;;;;;;4.15;3.75;;;;;;;21.00;84.56;101839.75;6174628;28;20222;-67
2023/08/23 06:37:08;;;;;;;6.05;3.17;;;;;;;21.12;84.51;101848.44;6181970;28;20258;-65
2023/08/23 06:40:29;;;;;;;4.53;2.85;;;;;;;20.94;85.97;101854.19;6172705;28;20233;-64
2023/08/23 06:43:59;;;;;;;7.93;3.30;;;;;;;20.95;85.34;101849.53;6216969;28;20237;-66
2023/08/23 06:47:20;;;;;;;3.90;2.83;;;;;;;21.27;84.96;101844.75;6200213;28;20228;-65
2023/08/23 06:50:41;;;;;;;5.15;2.45;;;;;;;21.62;83.60;101848.75;6197901;28;20233;-64
2023/08/23 06:54:02;;;;;;;4.00;2.45;;;;;;;21.43;83.47;101854.75;6165724;28;20595;-64
2023/08/23 06:57:28;;;;;;;2.85;2.17;;;;;;;21.88;81.81;101853.91;6161543;28;20236;-64
2023/08/23 07:00:50;;;;;;;2.88;2.28;;;;;;;22.04;80.72;101856.47;6156505;28;20266;-67
2023/08/23 07:04:11;;;;;;;8.40;2.53;;;;;;;21.66;81.21;101857.47;6168627;28;20254;-67
2023/08/23 07:07:32;;;;;;;4.00;2.47;;;;;;;22.00;80.71;101849.66;6186040;28;20229;-67
2023/08/23 07:10:53;;;;;;;2.50;2.03;;;;;;;21.65;80.44;101861.28;6200815;28;20233;-67
2023/08/23 07:14:14;;;;;;;2.78;2.20;;;;;;;21.46;82.11;101846.97;6183846;28;20222;-66
2023/08/23 07:17:36;;;;;;;4.40;2.20;;;;;;;21.65;81.75;101853.91;6194574;28;20790;-66
2023/08/23 07:20:58;;;;;;;2.47;1.88;;;;;;;21.71;81.05;101863.28;6170349;28;20249;-68
2023/08/23 07:24:19;;;;;;;3.60;1.73;;;;;;;21.55;81.88;101863.41;6217536;28;20232;-67
2023/08/23 07:27:39;;;;;;;3.38;2.22;;;;;;;21.70;80.89;101856.91;6178873;28;20234;-68
2023/08/23 07:31:00;;;;;;;2.35;2.00;;;;;;;21.88;80.18;101857.47;6198368;28;20237;-68
2023/08/23 07:34:22;;;;;;;3.63;2.22;;;;;;;21.65;80.48;101862.13;6217942;28;20225;-68
2023/08/23 07:37:44;;;;;;;3.40;1.88;;;;;;;21.66;80.26;101865.69;6196734;28;20232;-66
2023/08/23 07:41:04;;;;;;;2.28;1.65;;;;;;;21.60;80.46;101858.22;6177592;28;20226;-68
2023/08/23 07:44:25;;;;;;;6.25;3.15;;;;;;;21.63;80.02;101866.09;6182203;28;20241;-67
2023/08/23 07:47:46;;;;;;;2.60;2.15;;;;;;;21.90;78.98;101869.16;6197588;28;20292;-68
2023/08/23 07:51:08;;;;;;;2.35;1.80;;;;;;;22.25;78.41;101868.44;6191685;28;20234;-67
2023/08/23 07:54:29;;;;;;;5.28;2.22;;;;;;;22.21;77.56;101869.00;6185341;28;20632;-68
2023/08/23 07:57:51;;;;;;;4.35;2.55;;;;;;;22.19;77.67;101876.59;6199796;28;20260;-68
2023/08/23 08:01:12;;;;;;;2.25;1.80;;;;;;;22.77;75.55;101881.28;6187532;28;20560;-70
2023/08/23 08:04:36;;;;;;;3.33;1.83;;;;;;;22.58;74.69;101877.22;6207350;28;21101;-68
2023/08/23 08:07:58;;;;;;;2.55;1.65;;;;;;;21.93;75.56;101892.63;6208792;28;20236;-67
2023/08/23 08:11:19;;;;;;;3.63;2.22;;;;;;;21.89;77.49;101894.03;6174804;28;20233;-67
2023/08/23 08:14:40;;;;;;;2.97;1.90;;;;;;;22.13;75.79;101891.06;6183122;28;20231;-68
2023/08/23 08:18:01;;;;;;;1.27;1.17;;;;;;;22.09;77.03;101895.25;6167898;28;20250;-67
2023/08/23 08:21:22;;;;;;;1.52;1.42;;;;;;;22.12;75.29;101898.47;6184776;28;20220;-66
2023/08/23 08:24:44;;;;;;;1.50;1.27;;;;;;;22.23;74.52;101903.50;6168929;28;20241;-67
2023/08/23 08:28:05;;;;;;;1.85;1.60;;;;;;;22.33;72.93;101907.84;6195180;28;20327;-67
2023/08/23 08:31:25;;;;;;;2.58;2.33;;;;;;;21.36;75.21;101906.75;6172719;28;21409;-67
2023/08/23 08:34:46;;;;;;;2.25;1.45;;;;;;;21.22;76.67;101906.66;6209477;28;20706;-65
2023/08/23 08:38:08;;;;;;;1.70;1.58;;;;;;;22.30;73.53;101908.25;6182928;28;20233;-67
2023/08/23 08:41:30;;;;;;;1.35;1.25;;;;;;;22.81;70.90;101904.59;6183920;28;20658;-68
2023/08/23 08:44:52;;;;;;;1.55;1.42;;;;;;;22.37;70.41;101921.03;6191846;28;20253;-67
2023/08/23 08:48:14;;;;;;;1.40;1.30;;;;;;;22.42;70.76;101909.50;6173778;28;20226;-67
2023/08/23 08:51:42;;;;;;;1.63;1.52;;;;;;;23.08;69.95;101914.03;6189470;28;20241;-67
2023/08/23 08:55:04;;;;;;;1.27;1.25;;;;;;;22.94;68.95;101913.03;6186436;28;20312;-66
2023/08/23 08:58:29;;;;;;;1.92;1.25;;;;;;;22.08;72.13;101908.09;6206786;28;20240;-67
2023/08/23 09:01:50;;;;;;;1.45;1.10;;;;;;;23.18;70.33;101906.31;6180429;28;20248;-67
2023/08/23 09:05:12;;;;;;;2.55;1.15;;;;;;;23.80;68.36;101890.97;6192033;28;20225;-67
2023/08/23 09:08:34;;;;;;;1.33;1.10;;;;;;;23.33;68.44;101904.44;6213271;28;20233;-66
2023/08/23 09:11:55;;;;;;;2.45;1.40;;;;;;;23.95;67.32;101901.91;6199964;28;20225;-68
2023/08/23 09:15:23;;;;;;;1.77;1.40;;;;;;;24.29;66.93;101908.38;6193261;28;20229;-67
2023/08/23 09:18:46;;;;;;;1.85;1.08;;;;;;;24.77;64.76;101903.84;6203743;28;20221;-67
2023/08/23 09:22:07;;;;;;;2.55;1.60;;;;;;;24.25;63.79;101903.44;6197205;28;20228;-66
2023/08/23 09:25:28;;;;;;;3.47;1.10;;;;;;;24.10;64.37;101899.94;6187342;28;20234;-67
2023/08/23 09:28:49;;;;;;;1.15;1.02;;;;;;;23.97;64.43;101911.66;6218445;28;20241;-67
2023/08/23 09:32:11;;;;;;;1.20;1.10;;;;;;;24.21;64.15;101907.66;6216547;28;20224;-67
2023/08/23 09:35:32;;;;;;;1.30;1.20;;;;;;;24.41;64.22;101911.41;6211146;28;20234;-68
2023/08/23 09:38:53;;;;;;;1.55;1.25;;;;;;;24.37;64.08;101904.59;6190468;28;20234;-67
2023/08/23 09:42:15;;;;;;;3.90;1.48;;;;;;;22.94;66.53;101902.03;6216677;28;20216;-66
2023/08/23 09:45:36;;;;;;;1.30;1.17;;;;;;;23.01;67.27;101895.56;6207803;28;20745;-67
2023/08/23 09:49:00;;;;;;;1.23;0.90;;;;;;;23.43;66.93;101893.94;6175650;28;20230;-66
2023/08/23 09:52:24;;;;;;;1.85;1.50;;;;;;;23.09;65.62;101897.38;6187391;28;20347;-67
2023/08/23 09:55:46;;;;;;;2.22;2.08;;;;;;;23.86;64.91;101890.19;6189363;28;20233;-67
2023/08/23 09:59:07;;;;;;;1.20;1.10;;;;;;;24.25;63.94;101890.53;6184706;28;20241;-67
2023/08/23 10:02:30;;;;;;;2.28;1.00;;;;;;;24.37;62.32;101890.81;6193991;28;20236;-67
2023/08/23 10:05:54;;;;;;;4.03;1.50;;;;;;;24.62;62.51;101886.53;6187096;28;20234;-67
2023/08/23 10:09:16;;;;;;;1.17;1.02;;;;;;;23.68;62.40;101890.63;6160942;28;20242;-68
2023/08/23 10:12:42;;;;;;;0.70;0.70;;;;;;;24.24;60.79;101896.25;6201109;28;20240;-68
2023/08/23 10:16:06;;;;;;;1.67;0.60;;;;;;;23.32;61.42;101891.69;6166640;28;20316;-66
2023/08/23 10:19:27;;;;;;;1.38;1.25;;;;;;;23.44;62.76;101880.03;6199614;28;20261;-67
2023/08/23 10:22:53;;;;;;;1.10;1.00;;;;;;;23.88;62.23;101881.72;6201007;28;20233;-71
2023/08/23 10:26:19;;;;;;;4.50;1.42;;;;;;;24.56;62.37;101877.16;6171703;28;20233;-68
2023/08/23 10:29:40;;;;;;;3.45;1.10;;;;;;;24.98;59.59;101869.75;6202702;28;20240;-68
2023/08/23 10:33:08;;;;;;;2.40;1.25;;;;;;;24.87;60.30;101859.31;6191081;28;20232;-69
2023/08/23 10:36:31;;;;;;;2.03;1.35;;;;;;;24.88;58.61;101872.06;6185244;28;20232;-70
2023/08/23 10:39:54;;;;;;;1.13;0.60;;;;;;;24.76;59.01;101873.69;6202676;28;20237;-68
2023/08/23 10:43:17;;;;;;;1.02;0.93;;;;;;;24.78;58.13;101871.59;6210824;28;20250;-68
2023/08/23 10:46:44;;;;;;;3.80;1.08;;;;;;;24.41;58.55;101864.53;6183543;28;20232;-68
2023/08/23 10:50:07;;;;;;;3.90;0.93;;;;;;;24.97;57.83;101857.03;6200898;28;20228;-67
2023/08/23 10:53:28;;;;;;;1.33;0.80;;;;;;;26.07;57.37;101859.19;6192368;28;20259;-69
2023/08/23 10:56:50;;;;;;;1.45;1.05;;;;;;;25.08;57.19;101854.50;6178852;28;20241;-69
2023/08/23 11:00:12;;;;;;;2.50;0.93;;;;;;;24.91;57.47;101855.09;6192687;28;20228;-68
2023/08/23 11:03:34;;;;;;;0.85;0.85;;;;;;;23.38;60.03;101866.19;6200784;28;20237;-66
2023/08/23 11:06:55;;;;;;;1.02;0.82;;;;;;;25.13;58.60;101867.69;6179208;28;20236;-67
2023/08/23 11:10:16;;;;;;;0.70;0.70;;;;;;;25.84;56.07;101855.13;6197401;28;21919;-69
2023/08/23 11:13:39;;;;;;;1.50;1.13;;;;;;;25.58;55.51;101855.94;6205905;28;20323;-68
2023/08/23 11:17:00;;;;;;;0.70;0.70;;;;;;;25.36;55.83;101857.16;6184151;28;20549;-67
2023/08/23 11:20:21;;;;;;;0.93;0.82;;;;;;;26.07;55.47;101850.91;6197128;28;20225;-67
2023/08/23 11:23:43;;;;;;;1.50;0.80;;;;;;;26.96;53.69;101847.47;6196225;28;20564;-66
2023/08/23 11:27:03;;;;;;;0.80;0.70;;;;;;;26.61;54.46;101855.25;6197052;28;20504;-67
2023/08/23 11:30:26;;;;;;;1.15;1.05;;;;;;;27.07;52.81;101853.19;6169044;28;20253;-68
2023/08/23 11:33:47;;;;;;;1.83;0.98;;;;;;;27.05;52.01;101858.09;6192927;28;20453;-68
2023/08/23 11:37:09;;;;;;;1.50;1.17;;;;;;;25.96;54.69;101858.94;6195107;28;20312;-69
2023/08/23 11:40:30;;;;;;;1.40;0.98;;;;;;;26.34;55.05;101851.72;6171452;28;20538;-67
2023/08/23 11:43:51;;;;;;;1.67;0.90;;;;;;;27.65;51.31;101846.47;6180568;28;22172;-66
2023/08/23 11:47:13;;;;;;;1.52;1.00;;;;;;;26.20;52.53;101865.78;6173880;28;20564;-66
2023/08/23 11:50:34;;;;;;;1.13;1.02;;;;;;;26.65;52.49;101851.84;6177226;28;20237;-67
2023/08/23 11:53:55;;;;;;;0.57;0.57;;;;;;;30.48;47.63;101858.41;6193104;28;20233;-69
2023/08/23 11:57:18;;;;;;;1.10;0.95;;;;;;;33.97;39.36;101844.22;6203767;28;20234;-66
2023/08/23 12:00:38;;;;;;;1.15;1.00;;;;;;;34.22;39.40;101838.84;6175602;28;20230;-67
2023/08/23 12:04:01;;;;;;;1.20;1.10;;;;;;;35.48;37.44;101850.72;6198984;28;20313;-68
2023/08/23 12:07:22;;;;;;;0.93;0.93;;;;;;;36.70;35.91;101831.56;6186685;28;20490;-69
2023/08/23 12:10:42;;;;;;;2.35;1.00;;;;;;;35.47;37.58;101830.22;6195368;28;20592;-69
2023/08/23 12:14:17;;;;;;;1.55;0.80;;;;;;;33.93;36.72;101843.94;6194516;28;20571;-68
2023/08/23 12:17:39;;;;;;;1.02;0.90;;;;;;;30.39;43.45;101844.03;6189129;28;20240;-69
2023/08/23 12:21:02;;;;;;;0.90;0.90;;;;;;;30.80;41.89;101842.97;6171486;28;20329;-70
2023/08/23 12:24:23;;;;;;;4.70;1.00;;;;;;;31.03;42.30;101842.94;6167856;28;20234;-70
2023/08/23 12:27:44;;;;;;;0.98;0.63;;;;;;;33.67;38.28;101842.03;6166309;28;20234;-73
2023/08/23 12:31:05;;;;;;;0.98;0.90;;;;;;;35.10;36.20;101833.22;6176345;28;20237;-71
2023/08/23 12:34:25;;;;;;;1.13;0.70;;;;;;;34.63;37.05;101840.81;6198066;28;20224;-71
2023/08/23 12:37:48;;;;;;;1.10;0.85;;;;;;;30.64;42.12;101840.97;6168065;28;20526;-70
2023/08/23 12:41:09;;;;;;;0.88;0.60;;;;;;;34.36;37.56;101838.13;6203811;28;20328;-69
2023/08/23 12:44:32;;;;;;;1.38;1.00;;;;;;;36.31;34.36;101832.50;6182181;28;20262;-71
2023/08/23 12:47:53;;;;;;;2.53;1.38;;;;;;;34.85;36.22;101829.44;6174589;28;20230;-71
2023/08/23 12:51:14;;;;;;;1.13;0.70;;;;;;;31.94;39.41;101833.56;6180014;28;20242;-72
2023/08/23 12:54:36;;;;;;;1.15;0.80;;;;;;;34.54;37.72;101828.47;6184743;28;20241;-68
2023/08/23 12:57:57;;;;;;;1.48;0.90;;;;;;;36.76;34.39;101821.97;6206975;28;20245;-71
2023/08/23 13:01:17;;;;;;;1.35;0.98;;;;;;;36.38;33.54;101825.47;6190863;28;20324;-66
2023/08/23 13:04:39;;;;;;;1.95;1.23;;;;;;;32.95;36.68;101819.94;6173540;28;20261;-66
2023/08/23 13:08:00;;;;;;;0.80;0.80;;;;;;;35.62;35.41;101813.41;6167775;28;20237;-66
2023/08/23 13:11:22;;;;;;;1.40;1.30;;;;;;;37.34;32.97;101797.78;6179926;28;20553;-67
2023/08/23 13:14:43;;;;;;;0.75;0.70;;;;;;;31.90;38.82;101809.97;6179148;28;20225;-67
2023/08/23 13:18:05;;;;;;;1.13;1.02;;;;;;;29.37;42.66;101805.53;6178618;28;20633;-65
2023/08/23 13:21:26;;;;;;;2.08;1.15;;;;;;;31.94;38.30;101806.47;6190134;28;20596;-66
2023/08/23 13:24:48;;;;;;;1.42;1.02;;;;;;;31.08;40.01;101800.41;6186198;28;20238;-68
2023/08/23 13:28:13;;;;;;;1.98;1.15;;;;;;;31.57;40.88;101798.81;6189424;28;20233;-66
2023/08/23 13:31:33;;;;;;;0.82;0.82;;;;;;;30.10;42.16;101802.38;6202296;28;20609;-66
2023/08/23 13:34:54;;;;;;;1.58;1.08;;;;;;;32.42;39.76;101785.44;6181094;28;20234;-65
2023/08/23 13:38:17;;;;;;;0.80;0.80;;;;;;;33.45;36.94;101782.47;6185337;28;20359;-68
2023/08/23 13:41:38;;;;;;;3.45;1.20;;;;;;;32.11;38.67;101786.91;6211069;28;20233;-67
2023/08/23 13:45:00;;;;;;;1.00;0.90;;;;;;;31.21;38.49;101775.03;6188393;28;20234;-67
2023/08/23 13:48:21;;;;;;;1.48;1.00;;;;;;;30.36;41.72;101774.91;6169370;28;20356;-67
2023/08/23 13:51:42;;;;;;;2.70;1.00;;;;;;;32.18;39.61;101768.91;6192518;28;20612;-67
2023/08/23 13:55:04;;;;;;;2.47;1.00;;;;;;;34.19;35.88;101761.00;6187142;28;20229;-68
2023/08/23 13:58:25;;;;;;;2.55;1.33;;;;;;;31.27;39.98;101752.53;6200965;28;20241;-68
2023/08/23 14:01:47;;;;;;;1.92;1.42;;;;;;;30.65;41.96;101759.94;6204285;28;20233;-69
2023/08/23 14:05:08;;;;;;;1.77;1.52;;;;;;;30.54;40.83;101751.66;6199708;28;20229;-67
2023/08/23 14:08:30;;;;;;;1.95;1.40;;;;;;;27.14;46.66;101768.16;6183988;28;20324;-67
2023/08/23 14:11:55;;;;;;;7.15;1.42;;;;;;;27.75;45.48;101771.09;6184590;28;20248;-69
2023/08/23 14:15:16;;;;;;;0.80;0.80;;;;;;;29.03;43.52;101770.94;6171013;28;20550;-68
2023/08/23 14:18:38;;;;;;;1.45;0.80;;;;;;;31.01;40.07;101747.63;6190345;28;20233;-67
2023/08/23 14:21:59;;;;;;;1.30;1.00;;;;;;;30.81;39.28;101749.97;6176125;28;20603;-68
2023/08/23 14:25:19;;;;;;;2.33;1.15;;;;;;;29.60;40.73;101757.47;6182036;28;20250;-66
2023/08/23 14:28:41;;;;;;;2.55;1.30;;;;;;;30.47;39.23;101760.13;6172382;28;20667;-67
2023/08/23 14:32:02;;;;;;;0.95;0.80;;;;;;;30.81;39.70;101757.50;6170782;28;20747;-66
2023/08/23 14:35:24;;;;;;;0.77;0.70;;;;;;;30.70;40.67;101753.66;6193092;28;20363;-68
2023/08/23 14:38:45;;;;;;;2.05;1.15;;;;;;;28.05;45.39;101749.09;6190852;28;20344;-67
2023/08/23 14:42:07;;;;;;;1.63;1.05;;;;;;;28.43;45.40;101747.78;6188274;28;20235;-66
2023/08/23 14:45:28;;;;;;;1.98;1.45;;;;;;;27.95;46.02;101737.66;6168558;28;20606;-67
2023/08/23 14:48:49;;;;;;;2.05;1.20;;;;;;;28.02;45.81;101746.78;6168474;28;20261;-65
2023/08/23 14:52:16;;;;;;;3.03;1.40;;;;;;;29.42;44.41;101744.50;6164070;28;20286;-65
2023/08/23 14:55:37;;;;;;;0.75;0.75;;;;;;;27.86;46.69;101739.03;6168696;28;20325;-66
2023/08/23 14:58:58;;;;;;;2.25;1.42;;;;;;;28.15;46.56;101732.78;6158853;28;20238;-67
2023/08/23 15:02:19;;;;;;;1.27;1.17;;;;;;;28.63;45.24;101733.69;6190991;28;20347;-68
2023/08/23 15:05:40;;;;;;;1.90;1.40;;;;;;;27.59;47.47;101727.34;6200649;28;20232;-68
2023/08/23 15:09:03;;;;;;;1.38;1.27;;;;;;;26.72;49.11;101730.09;6173126;28;20253;-68
2023/08/23 15:12:24;;;;;;;1.40;0.90;;;;;;;27.33;47.57;101724.75;6173226;28;20233;-68
2023/08/23 15:15:45;;;;;;;2.75;1.33;;;;;;;28.35;46.79;101725.91;6183534;28;20233;-68
2023/08/23 15:19:07;;;;;;;0.90;0.90;;;;;;;28.63;46.01;101721.75;6178281;28;20241;-68
2023/08/23 15:22:28;;;;;;;5.05;2.08;;;;;;;28.04;47.51;101725.19;6193208;28;20309;-68
2023/08/23 15:25:50;;;;;;;2.42;1.42;;;;;;;27.46;47.74;101721.91;6198853;28;20619;-68
2023/08/23 15:29:11;;;;;;;3.63;1.48;;;;;;;27.11;48.07;101712.38;6197868;28;20241;-68
2023/08/23 15:32:32;;;;;;;4.15;3.53;;;;;;;27.12;48.23;101714.91;6178752;28;20265;-68
2023/08/23 15:35:53;;;;;;;1.90;1.80;;;;;;;27.30;48.45;101705.84;6193676;28;20253;-67
2023/08/23 15:39:14;;;;;;;2.13;1.30;;;;;;;27.55;48.43;101712.25;6209788;28;20237;-68